CCGS Sir Wilfrid Laurier — CGJK — position and weather

sailwx.info

Track history (hours):
 
Tides and Currents Weather Stations Pressure Air Temp Water Temp Dewpoint Dewpoint Depression Visibility Wind Speed Wind Dir Waves Ship Positions

Oceanographic research ship CCGS Sir Wilfrid Laurier (Canada)

Detailed information on ship capabilities available from ARCUS's ALIAS (Arctic Logistics Information and Support) project.

Last reported at 2015-May-23 18:21 UTC. Time now 2015-May-26 15:26 UTC.
Position N 52°21' W 128°32'.

Length 83 m; beam 16.2 m; draft 6 m.

Type: SAR. MMSI: 316052000.

Date/timePositionNaut miles runAvg speedWind from/ knotsBaromVisibWave heightAir tempDewpointWater temp
2015-May-23 18:21N 52°21' W 128°32'37 7.6
2015-May-23 13:32N 51°45' W 128°33'39 9.6
2015-May-23 09:31N 51°10' W 128°07'10 9.9
2015-May-23 08:29N 51°03' W 127°55'1010.3
2015-May-23 07:33N 50°57' W 127°43'1110.8
2015-May-23 06:33N 50°51' W 127°29'4 3.5
2015-May-23 05:34N 50°47' W 127°31'7 6.5
2015-May-23 04:33N 50°49' W 127°40'15 7.1
2015-May-23 02:29N 50°54' W 128°03'4 3.4
2015-May-23 01:17N 50°54' W 127°56'0 0.4
2015-May-23 00:31N 50°54' W 127°57'4 3.8
2015-May-22 23:23N 50°55' W 128°03'  
Track history (hours):
 
Tides and Currents Weather Stations Pressure Air Temp Water Temp Dewpoint Dewpoint Depression Visibility Wind Speed Wind Dir Waves Ship Positions

Oceanographic research ship CCGS Sir Wilfrid Laurier (Canada)

Detailed information on ship capabilities available from ARCUS's ALIAS (Arctic Logistics Information and Support) project.

Last reported at 2015-May-23 18:21 UTC. Time now 2015-May-26 15:26 UTC.
Position N 52°21' W 128°32'.

Length 83 m; beam 16.2 m; draft 6 m.

Type: SAR. MMSI: 316052000.

Date/timePositionNaut miles runAvg speedWind from/ knotsBaromVisibWave heightAir tempDewpointWater temp
2015-May-23 18:21N 52°21' W 128°32'37 7.6
2015-May-23 13:32N 51°45' W 128°33'39 9.6
2015-May-23 09:31N 51°10' W 128°07'10 9.9
2015-May-23 08:29N 51°03' W 127°55'1010.3
2015-May-23 07:33N 50°57' W 127°43'1110.8
2015-May-23 06:33N 50°51' W 127°29'4 3.5
2015-May-23 05:34N 50°47' W 127°31'7 6.5
2015-May-23 04:33N 50°49' W 127°40'15 7.1
2015-May-23 02:29N 50°54' W 128°03'4 3.4
2015-May-23 01:17N 50°54' W 127°56'0 0.4
2015-May-23 00:31N 50°54' W 127°57'4 3.8
2015-May-22 23:23N 50°55' W 128°03'  

Dump ship's entire track history